createdAt,value
2023-02-27T00:00:18.669Z,4.90
2023-02-27T00:00:53.250Z,4.93
2023-02-27T00:01:29.789Z,4.25
2023-02-27T00:02:05.045Z,4.47
2023-02-27T00:02:41.429Z,4.47
2023-02-27T00:03:14.958Z,4.13
2023-02-27T00:03:49.215Z,4.25
2023-02-27T00:04:24.687Z,4.50
2023-02-27T00:04:58.168Z,4.25
2023-02-27T00:05:32.237Z,4.65
2023-02-27T00:06:08.297Z,5.97
2023-02-27T00:06:43.005Z,3.90
2023-02-27T00:07:18.534Z,4.75
2023-02-27T00:07:54.688Z,4.63
2023-02-27T00:08:28.932Z,4.45
2023-02-27T00:09:03.766Z,4.53
2023-02-27T00:09:42.498Z,4.35
2023-02-27T00:10:16.956Z,3.95
2023-02-27T00:10:52.246Z,4.05
2023-02-27T00:11:26.878Z,4.25
2023-02-27T00:12:00.245Z,4.63
2023-02-27T00:12:38.558Z,4.53
2023-02-27T00:13:12.695Z,4.75
2023-02-27T00:13:45.921Z,4.53
2023-02-27T00:14:21.624Z,4.97
2023-02-27T00:14:55.151Z,4.85
2023-02-27T00:15:31.390Z,4.03
2023-02-27T00:16:05.660Z,4.90
2023-02-27T00:16:39.561Z,4.47
2023-02-27T00:17:14.010Z,4.63
2023-02-27T00:17:49.327Z,4.40
2023-02-27T00:18:24.061Z,5.10
2023-02-27T00:19:00.102Z,4.45
2023-02-27T00:19:34.461Z,5.32
2023-02-27T00:20:12.304Z,4.63
2023-02-27T00:20:46.839Z,4.68
2023-02-27T00:21:21.860Z,4.45
2023-02-27T00:21:55.574Z,4.50
2023-02-27T00:22:31.973Z,3.83
2023-02-27T00:23:07.853Z,4.68
2023-02-27T00:23:41.781Z,4.32
2023-02-27T00:24:16.352Z,4.00
2023-02-27T00:24:50.390Z,4.05
2023-02-27T00:25:25.129Z,4.20
2023-02-27T00:26:01.081Z,4.10
2023-02-27T00:26:35.302Z,5.05
2023-02-27T00:27:09.945Z,4.65
2023-02-27T00:27:44.792Z,4.47
2023-02-27T00:28:19.546Z,4.47
2023-02-27T00:28:53.816Z,4.40
2023-02-27T00:29:29.157Z,3.88
2023-02-27T00:30:03.225Z,3.78
2023-02-27T00:30:38.385Z,4.35
2023-02-27T00:31:14.408Z,4.55
2023-02-27T00:31:48.320Z,4.43
2023-02-27T00:32:22.655Z,4.07
2023-02-27T00:32:57.472Z,5.03
2023-02-27T00:33:30.946Z,4.35
2023-02-27T00:34:05.003Z,4.43
2023-02-27T00:34:39.881Z,4.25
2023-02-27T00:35:13.399Z,4.57
2023-02-27T00:35:47.040Z,4.85
2023-02-27T00:36:21.261Z,3.83
2023-02-27T00:36:54.962Z,4.15
2023-02-27T00:37:32.181Z,4.75
2023-02-27T00:38:07.031Z,4.45
2023-02-27T00:38:41.412Z,4.10
2023-02-27T00:39:16.580Z,4.60
2023-02-27T00:39:51.250Z,4.50
2023-02-27T00:40:25.535Z,4.03
2023-02-27T00:40:59.801Z,4.50
2023-02-27T00:41:35.192Z,5.10
2023-02-27T00:42:09.322Z,4.35
2023-02-27T00:42:42.895Z,4.90
2023-02-27T00:43:17.896Z,4.13
2023-02-27T00:43:51.481Z,4.55
2023-02-27T00:44:25.015Z,4.60
2023-02-27T00:44:59.778Z,4.20
2023-02-27T00:45:37.912Z,4.32
2023-02-27T00:46:12.769Z,4.18
2023-02-27T00:46:46.610Z,4.30
2023-02-27T00:47:20.501Z,4.40
2023-02-27T00:48:01.562Z,4.38
2023-02-27T00:48:43.751Z,4.35
2023-02-27T00:49:20.414Z,4.30
2023-02-27T00:49:54.160Z,4.50
2023-02-27T00:50:29.205Z,4.15
2023-02-27T00:51:02.277Z,4.32
2023-02-27T00:51:36.594Z,4.55
2023-02-27T00:52:11.789Z,4.38
2023-02-27T00:53:04.241Z,4.43
2023-02-27T00:53:39.389Z,4.18
2023-02-27T00:54:15.926Z,4.70
2023-02-27T00:54:49.584Z,4.45
2023-02-27T00:55:23.103Z,4.15
2023-02-27T00:55:57.061Z,4.60
2023-02-27T00:56:32.921Z,3.88
2023-02-27T00:57:06.606Z,4.55
2023-02-27T00:57:41.122Z,4.72
2023-02-27T00:58:16.398Z,4.50
2023-02-27T00:58:49.983Z,4.80
2023-02-27T00:59:24.343Z,4.20
2023-02-27T01:00:01.999Z,4.32
2023-02-27T01:00:36.614Z,4.43
2023-02-27T01:01:10.454Z,4.93
2023-02-27T01:01:46.337Z,4.60
2023-02-27T01:02:20.492Z,4.13
2023-02-27T01:02:55.882Z,3.97
2023-02-27T01:03:31.174Z,4.18
2023-02-27T01:04:05.431Z,4.63
2023-02-27T01:04:39.669Z,4.70
2023-02-27T01:05:14.053Z,4.07
2023-02-27T01:05:48.456Z,4.32
2023-02-27T01:06:23.722Z,3.85
2023-02-27T01:06:56.837Z,4.32
2023-02-27T01:07:31.447Z,4.50
2023-02-27T01:08:07.911Z,4.50
2023-02-27T01:08:43.717Z,4.10
2023-02-27T01:09:19.955Z,4.78
2023-02-27T01:09:53.621Z,4.45
2023-02-27T01:10:27.215Z,4.60
2023-02-27T01:11:03.868Z,4.75
2023-02-27T01:11:39.171Z,5.03
2023-02-27T01:12:12.212Z,4.72
2023-02-27T01:12:46.501Z,4.78
2023-02-27T01:13:20.136Z,4.93
2023-02-27T01:13:54.770Z,4.50
2023-02-27T01:14:29.057Z,4.25
2023-02-27T01:15:25.428Z,4.93
2023-02-27T01:16:01.590Z,4.30
2023-02-27T01:16:36.433Z,4.40
2023-02-27T01:17:09.432Z,4.75
2023-02-27T01:17:45.766Z,4.85
2023-02-27T01:18:19.456Z,5.55
2023-02-27T01:18:56.072Z,4.40
2023-02-27T01:19:31.345Z,6.07
2023-02-27T01:20:06.023Z,4.28
2023-02-27T01:20:41.094Z,3.85
2023-02-27T01:21:16.212Z,4.32
2023-02-27T01:21:52.047Z,4.55
2023-02-27T01:22:29.778Z,4.82
2023-02-27T01:23:03.482Z,4.47
2023-02-27T01:23:37.312Z,4.20
2023-02-27T01:24:14.845Z,4.20
2023-02-27T01:24:48.515Z,4.38
2023-02-27T01:25:21.563Z,4.47
2023-02-27T01:25:56.479Z,4.43
2023-02-27T01:26:30.533Z,4.43
2023-02-27T01:27:03.666Z,4.43
2023-02-27T01:27:39.088Z,4.45
2023-02-27T01:28:12.567Z,4.22
2023-02-27T01:28:46.367Z,4.13
2023-02-27T01:29:21.265Z,5.00
2023-02-27T01:29:54.283Z,3.90
2023-02-27T01:30:30.583Z,4.72
2023-02-27T01:31:05.836Z,4.05
2023-02-27T01:31:39.993Z,4.45
2023-02-27T01:32:14.778Z,3.83
2023-02-27T01:32:50.121Z,3.85
2023-02-27T01:33:24.741Z,4.60
2023-02-27T01:33:59.319Z,4.57
2023-02-27T01:34:34.959Z,4.65
2023-02-27T01:35:09.834Z,4.93
2023-02-27T01:35:43.912Z,4.05
2023-02-27T01:36:20.568Z,4.78
2023-02-27T01:36:54.972Z,4.55
2023-02-27T01:37:28.521Z,4.43
2023-02-27T01:38:03.157Z,4.80
2023-02-27T01:38:38.541Z,4.03
2023-02-27T01:39:13.864Z,4.70
2023-02-27T01:39:48.633Z,4.00
2023-02-27T01:40:23.207Z,4.50
2023-02-27T01:40:58.072Z,4.65
2023-02-27T01:41:33.237Z,4.85
2023-02-27T01:42:14.868Z,4.55
2023-02-27T01:42:48.228Z,4.57
2023-02-27T01:43:24.377Z,4.35
2023-02-27T01:44:01.308Z,4.10
2023-02-27T01:44:55.909Z,4.75
2023-02-27T01:45:41.860Z,4.15
2023-02-27T01:46:15.908Z,4.93
2023-02-27T01:46:51.939Z,4.25
2023-02-27T01:47:26.766Z,4.25
2023-02-27T01:48:25.269Z,4.63
2023-02-27T01:49:00.985Z,3.55
2023-02-27T01:49:35.521Z,4.43
2023-02-27T01:50:10.186Z,4.95
2023-02-27T01:50:49.167Z,4.38
2023-02-27T01:51:25.152Z,4.05
2023-02-27T01:52:03.288Z,4.53
2023-02-27T01:52:37.962Z,4.68
2023-02-27T01:53:13.576Z,4.32
2023-02-27T01:53:49.916Z,4.70
2023-02-27T01:54:28.294Z,4.40
2023-02-27T01:55:03.269Z,4.63
2023-02-27T01:55:39.011Z,4.32
2023-02-27T01:56:15.417Z,4.60
2023-02-27T01:56:49.901Z,4.82
2023-02-27T01:57:24.170Z,4.60
2023-02-27T01:58:00.527Z,4.30
2023-02-27T01:58:34.708Z,5.00
2023-02-27T01:59:18.602Z,4.65
2023-02-27T01:59:53.297Z,4.68
2023-02-27T02:00:31.234Z,4.55
2023-02-27T02:01:05.430Z,5.05
2023-02-27T02:01:39.631Z,4.53
2023-02-27T02:02:16.870Z,4.80
2023-02-27T02:02:54.875Z,4.60
2023-02-27T02:03:33.230Z,4.60
2023-02-27T02:04:08.655Z,4.30
2023-02-27T02:04:42.963Z,4.78
2023-02-27T02:05:17.106Z,4.35
2023-02-27T02:05:53.065Z,4.70
2023-02-27T02:06:27.145Z,4.80
2023-02-27T02:07:03.420Z,3.92
2023-02-27T02:07:38.682Z,5.30
2023-02-27T02:08:13.410Z,5.45
2023-02-27T02:08:50.562Z,5.07
2023-02-27T02:09:27.625Z,4.68
2023-02-27T02:10:05.621Z,4.85
2023-02-27T02:10:41.227Z,4.85
2023-02-27T02:11:16.711Z,4.82
2023-02-27T02:11:54.444Z,4.65
2023-02-27T02:12:30.004Z,5.22
2023-02-27T02:13:04.407Z,4.90
2023-02-27T02:13:43.922Z,5.28
2023-02-27T02:14:18.564Z,4.72
2023-02-27T02:14:53.084Z,4.68
2023-02-27T02:15:32.269Z,4.82
2023-02-27T02:16:14.513Z,4.47
2023-02-27T02:16:57.360Z,5.63
2023-02-27T02:17:36.410Z,5.28
2023-02-27T02:18:17.528Z,4.85
2023-02-27T02:18:55.644Z,4.43
2023-02-27T02:20:01.146Z,4.78
2023-02-27T02:21:02.348Z,4.22
2023-02-27T02:22:01.370Z,3.85
2023-02-27T02:22:59.067Z,3.72
2023-02-27T02:23:50.186Z,4.38
2023-02-27T02:24:54.182Z,4.28
2023-02-27T02:25:56.947Z,3.75
2023-02-27T02:26:38.330Z,4.60
2023-02-27T02:27:19.730Z,4.40
2023-02-27T02:28:01.576Z,5.20
2023-02-27T02:28:44.638Z,4.72
2023-02-27T02:29:48.862Z,4.40
2023-02-27T02:30:46.612Z,4.90
2023-02-27T02:31:40.557Z,4.57
2023-02-27T02:32:29.409Z,4.80
2023-02-27T02:33:19.756Z,4.82
2023-02-27T02:34:42.023Z,3.97
2023-02-27T02:35:48.755Z,4.47
2023-02-27T02:36:43.097Z,4.57
2023-02-27T02:37:37.430Z,4.10
2023-02-27T02:38:29.972Z,4.65
2023-02-27T02:39:14.520Z,5.00
2023-02-27T02:39:56.702Z,4.72
2023-02-27T02:40:37.174Z,4.20
2023-02-27T02:41:13.725Z,4.60
2023-02-27T02:41:59.974Z,4.90
2023-02-27T02:42:36.714Z,5.05
2023-02-27T02:43:12.830Z,5.15
2023-02-27T02:43:50.988Z,4.80
2023-02-27T02:44:29.716Z,4.63
2023-02-27T02:45:09.320Z,5.05
2023-02-27T02:45:47.632Z,4.95
2023-02-27T02:46:25.397Z,4.85
2023-02-27T02:47:05.432Z,4.57
2023-02-27T02:47:45.837Z,4.53
2023-02-27T02:48:22.594Z,4.30
2023-02-27T02:48:59.916Z,5.18
2023-02-27T02:49:35.721Z,4.63
2023-02-27T02:50:13.658Z,5.22
2023-02-27T02:50:50.433Z,5.32
2023-02-27T02:51:29.704Z,4.88
2023-02-27T02:52:08.020Z,4.53
2023-02-27T02:52:45.092Z,5.03
2023-02-27T02:53:23.977Z,5.55
2023-02-27T02:54:04.336Z,4.43
2023-02-27T02:54:42.771Z,5.20
2023-02-27T02:55:19.984Z,4.32
2023-02-27T02:55:56.667Z,4.75
2023-02-27T02:56:32.887Z,4.97
2023-02-27T02:57:08.830Z,4.82
2023-02-27T02:57:45.980Z,4.63
2023-02-27T02:58:23.555Z,4.78
2023-02-27T02:58:59.927Z,4.90
2023-02-27T02:59:38.055Z,4.80
2023-02-27T03:00:15.208Z,4.97
2023-02-27T03:00:50.366Z,5.07
2023-02-27T03:01:29.716Z,5.10
2023-02-27T03:02:05.248Z,5.30
2023-02-27T03:02:42.758Z,5.30
2023-02-27T03:03:22.147Z,4.72
2023-02-27T03:03:57.481Z,5.15
2023-02-27T03:04:36.236Z,4.68
2023-02-27T03:05:11.466Z,4.75
2023-02-27T03:05:49.504Z,4.70
2023-02-27T03:06:25.367Z,4.85
2023-02-27T03:07:04.402Z,4.97
2023-02-27T03:07:41.164Z,4.65
2023-02-27T03:08:17.208Z,4.75
2023-02-27T03:08:54.809Z,4.82
2023-02-27T03:09:31.968Z,4.35
2023-02-27T03:10:09.988Z,5.10
2023-02-27T03:10:46.888Z,5.70
2023-02-27T03:11:22.055Z,4.95
2023-02-27T03:12:00.057Z,5.15
2023-02-27T03:12:36.085Z,4.80
2023-02-27T03:13:14.950Z,5.07
2023-02-27T03:13:49.395Z,4.93
2023-02-27T03:14:28.010Z,5.10
2023-02-27T03:15:05.675Z,4.97
2023-02-27T03:15:42.390Z,4.93
2023-02-27T03:16:20.139Z,5.40
2023-02-27T03:16:56.002Z,4.97
2023-02-27T03:17:34.941Z,4.75
2023-02-27T03:18:18.762Z,5.00
2023-02-27T03:18:55.793Z,5.50
2023-02-27T03:19:32.564Z,5.85
2023-02-27T03:20:08.525Z,5.32
2023-02-27T03:20:45.346Z,4.95
2023-02-27T03:21:23.824Z,4.93
2023-02-27T03:22:03.585Z,4.88
2023-02-27T03:22:39.845Z,4.55
2023-02-27T03:23:17.458Z,5.30
2023-02-27T03:23:52.459Z,4.70
2023-02-27T03:24:29.996Z,4.82
2023-02-27T03:25:36.683Z,4.60
2023-02-27T03:26:11.671Z,4.50
2023-02-27T03:26:46.576Z,4.95
2023-02-27T03:27:22.162Z,4.90
2023-02-27T03:28:01.751Z,5.30
2023-02-27T03:28:37.828Z,5.57
2023-02-27T03:29:17.408Z,4.78
2023-02-27T03:29:51.901Z,5.18
2023-02-27T03:30:30.818Z,4.93
2023-02-27T03:31:10.161Z,5.28
2023-02-27T03:31:47.228Z,5.03
2023-02-27T03:32:24.837Z,5.03
2023-02-27T03:33:00.652Z,4.95
2023-02-27T03:33:37.928Z,4.90
2023-02-27T03:34:14.478Z,4.90
2023-02-27T03:34:48.280Z,5.07
2023-02-27T03:35:24.406Z,5.13
2023-02-27T03:36:00.558Z,4.75
2023-02-27T03:36:39.677Z,4.72
2023-02-27T03:37:19.618Z,4.97
2023-02-27T03:37:59.165Z,5.28
2023-02-27T03:38:35.887Z,5.60
2023-02-27T03:39:14.591Z,4.75
2023-02-27T03:39:50.172Z,5.03
2023-02-27T03:40:33.421Z,4.85
2023-02-27T03:41:13.036Z,4.75
2023-02-27T03:41:56.601Z,4.43
2023-02-27T03:43:01.460Z,4.93
2023-02-27T03:43:53.551Z,4.70
2023-02-27T03:44:31.434Z,4.95
2023-02-27T03:45:08.682Z,4.50
2023-02-27T03:45:47.576Z,4.72
2023-02-27T03:46:23.061Z,5.13
2023-02-27T03:46:58.238Z,5.20
2023-02-27T03:47:34.706Z,5.25
2023-02-27T03:48:11.722Z,4.95
2023-02-27T03:48:49.819Z,5.47
2023-02-27T03:49:23.794Z,5.55
2023-02-27T03:49:58.143Z,4.72
2023-02-27T03:50:32.324Z,5.03
2023-02-27T03:51:07.353Z,5.25
2023-02-27T03:51:40.993Z,5.40
2023-02-27T03:52:14.754Z,5.50
2023-02-27T03:52:50.117Z,4.80
2023-02-27T03:53:27.072Z,4.90
2023-02-27T03:54:03.270Z,5.03
2023-02-27T03:54:40.787Z,5.35
2023-02-27T03:55:15.878Z,5.18
2023-02-27T03:55:53.841Z,5.97
2023-02-27T03:56:33.242Z,4.95
2023-02-27T03:57:08.013Z,5.30
2023-02-27T03:57:47.042Z,5.57
2023-02-27T03:58:26.022Z,4.40
2023-02-27T03:59:00.101Z,5.35
2023-02-27T03:59:37.204Z,4.68
2023-02-27T04:00:12.680Z,4.70
2023-02-27T04:00:56.945Z,4.75
2023-02-27T04:01:30.855Z,4.78
2023-02-27T04:02:05.120Z,5.28
2023-02-27T04:02:42.155Z,4.82
2023-02-27T04:03:17.592Z,5.32
2023-02-27T04:03:53.255Z,5.30
2023-02-27T04:04:46.310Z,5.18
2023-02-27T04:05:23.618Z,5.13
2023-02-27T04:06:21.354Z,5.10
2023-02-27T04:07:16.868Z,4.70
2023-02-27T04:07:59.416Z,4.90
2023-02-27T04:08:42.166Z,5.43
2023-02-27T04:09:24.507Z,4.32
2023-02-27T04:10:02.215Z,5.30
2023-02-27T04:11:05.281Z,4.75
2023-02-27T04:11:49.187Z,5.32
2023-02-27T04:12:32.176Z,4.70
2023-02-27T04:13:21.635Z,5.80
2023-02-27T04:14:03.276Z,4.80
2023-02-27T04:14:48.914Z,5.35
2023-02-27T04:15:27.369Z,5.20
2023-02-27T04:16:15.940Z,5.30
2023-02-27T04:16:57.864Z,4.95
2023-02-27T04:17:33.203Z,4.82
2023-02-27T04:18:18.478Z,4.88
2023-02-27T04:18:59.388Z,5.25
2023-02-27T04:19:41.679Z,5.07
2023-02-27T04:20:34.714Z,5.28
2023-02-27T04:21:12.072Z,5.00
2023-02-27T04:21:52.008Z,4.25
2023-02-27T04:22:33.360Z,4.93
2023-02-27T04:23:09.157Z,4.90
2023-02-27T04:23:47.596Z,4.78
2023-02-27T04:24:31.561Z,4.50
2023-02-27T04:25:14.963Z,4.75
2023-02-27T04:25:55.492Z,4.47
2023-02-27T04:27:08.303Z,4.90
2023-02-27T04:27:48.623Z,5.32
2023-02-27T04:28:27.136Z,5.82
2023-02-27T04:29:04.564Z,4.80
2023-02-27T04:29:44.210Z,5.13
2023-02-27T04:30:23.586Z,5.40
2023-02-27T04:31:02.772Z,5.50
2023-02-27T04:31:44.014Z,4.18
2023-02-27T04:32:55.818Z,4.90
2023-02-27T04:33:33.317Z,5.35
2023-02-27T04:34:09.943Z,5.18
2023-02-27T04:34:46.604Z,5.18
2023-02-27T04:35:23.441Z,4.40
2023-02-27T04:36:02.173Z,4.70
2023-02-27T04:36:37.901Z,5.00
2023-02-27T04:37:14.248Z,5.55
2023-02-27T04:37:52.074Z,4.63
2023-02-27T04:38:30.920Z,5.35
2023-02-27T04:39:09.042Z,4.72
2023-02-27T04:39:52.472Z,5.75
2023-02-27T04:40:29.273Z,5.53
2023-02-27T04:41:07.072Z,5.15
2023-02-27T04:41:44.537Z,6.90
2023-02-27T04:42:24.180Z,6.00
2023-02-27T04:43:01.938Z,5.32
2023-02-27T04:43:36.640Z,5.55
2023-02-27T04:44:15.634Z,6.05
2023-02-27T04:44:51.162Z,6.40
2023-02-27T04:45:27.640Z,5.75
2023-02-27T04:46:12.702Z,5.43
2023-02-27T04:46:48.172Z,4.47
2023-02-27T04:47:27.775Z,5.28
2023-02-27T04:48:04.166Z,4.88
2023-02-27T04:49:01.943Z,6.05
2023-02-27T04:49:39.219Z,5.00
2023-02-27T04:50:15.828Z,4.95
2023-02-27T04:50:53.957Z,5.47
2023-02-27T04:51:33.010Z,5.60
2023-02-27T04:52:11.686Z,5.68
2023-02-27T04:52:58.778Z,5.18
2023-02-27T04:53:37.852Z,5.07
2023-02-27T04:54:15.067Z,5.43
2023-02-27T04:54:55.289Z,5.55
2023-02-27T04:55:31.846Z,5.40
2023-02-27T04:56:14.136Z,5.07
2023-02-27T04:56:52.880Z,5.05
2023-02-27T04:57:30.335Z,5.95
2023-02-27T04:58:10.320Z,5.63
2023-02-27T04:58:46.451Z,5.63
2023-02-27T04:59:23.361Z,5.38
2023-02-27T04:59:57.727Z,5.47
2023-02-27T05:00:34.730Z,5.93
2023-02-27T05:01:13.912Z,5.30
2023-02-27T05:01:49.215Z,5.63
2023-02-27T05:02:25.404Z,5.07
2023-02-27T05:03:03.696Z,6.00
2023-02-27T05:03:39.781Z,5.38
2023-02-27T05:04:16.147Z,5.72
2023-02-27T05:04:51.244Z,5.43
2023-02-27T05:05:28.368Z,6.32
2023-02-27T05:06:02.627Z,6.30
2023-02-27T05:06:39.087Z,5.70
2023-02-27T05:07:17.332Z,5.68
2023-02-27T05:07:54.857Z,5.60
2023-02-27T05:08:32.388Z,5.60
2023-02-27T05:09:13.236Z,5.57
2023-02-27T05:09:49.499Z,5.90
2023-02-27T05:10:29.135Z,5.68
2023-02-27T05:11:10.250Z,5.03
2023-02-27T05:11:47.313Z,5.13
2023-02-27T05:12:24.205Z,4.90
2023-02-27T05:13:03.217Z,5.03
2023-02-27T05:13:44.692Z,5.57
2023-02-27T05:14:30.212Z,4.88
2023-02-27T05:15:08.354Z,5.35
2023-02-27T05:15:50.246Z,5.50
2023-02-27T05:16:27.284Z,5.80
2023-02-27T05:17:08.520Z,5.57
2023-02-27T05:17:45.572Z,5.35
2023-02-27T05:18:20.934Z,5.40
2023-02-27T05:18:57.170Z,5.50
2023-02-27T05:19:31.415Z,5.68
2023-02-27T05:20:07.301Z,5.57
2023-02-27T05:20:51.240Z,5.60
2023-02-27T05:21:28.244Z,5.30
2023-02-27T05:22:09.477Z,5.45
2023-02-27T05:22:49.036Z,5.78
2023-02-27T05:23:26.161Z,5.45
2023-02-27T05:24:10.462Z,5.40
2023-02-27T05:24:50.914Z,5.20
2023-02-27T05:25:32.763Z,5.43
2023-02-27T05:26:11.804Z,5.20
2023-02-27T05:26:53.498Z,6.00
2023-02-27T05:27:32.503Z,6.15
2023-02-27T05:28:10.074Z,5.88
2023-02-27T05:28:48.625Z,5.40
2023-02-27T05:29:26.187Z,5.38
2023-02-27T05:30:02.501Z,6.13
2023-02-27T05:30:38.642Z,5.45
2023-02-27T05:31:40.187Z,5.57
2023-02-27T05:32:19.118Z,5.32
2023-02-27T05:32:58.592Z,5.53
2023-02-27T05:33:35.924Z,5.53
2023-02-27T05:34:12.969Z,5.55
2023-02-27T05:34:50.909Z,5.20
2023-02-27T05:35:29.272Z,5.50
2023-02-27T05:36:07.292Z,6.22
2023-02-27T05:36:43.656Z,5.25
2023-02-27T05:37:20.637Z,5.22
2023-02-27T05:37:56.719Z,5.93
2023-02-27T05:38:34.183Z,5.97
2023-02-27T05:39:12.313Z,6.07
2023-02-27T05:39:47.928Z,6.60
2023-02-27T05:40:26.126Z,5.40
2023-02-27T05:41:02.579Z,5.35
2023-02-27T05:41:38.923Z,5.95
2023-02-27T05:42:17.090Z,6.20
2023-02-27T05:42:54.459Z,5.25
2023-02-27T05:43:35.953Z,5.60
2023-02-27T05:44:12.985Z,5.65
2023-02-27T05:44:51.384Z,5.68
2023-02-27T05:45:28.760Z,5.40
2023-02-27T05:46:04.173Z,5.85
2023-02-27T05:46:41.435Z,5.82
2023-02-27T05:47:19.783Z,5.50
2023-02-27T05:47:56.990Z,5.53
2023-02-27T05:48:33.992Z,6.03
2023-02-27T05:49:11.576Z,5.55
2023-02-27T05:49:49.559Z,5.22
2023-02-27T05:50:26.548Z,5.63
2023-02-27T05:51:01.068Z,5.68
2023-02-27T05:51:35.507Z,5.88
2023-02-27T05:52:13.397Z,5.88
2023-02-27T05:52:48.208Z,5.82
2023-02-27T05:53:22.790Z,5.32
2023-02-27T05:53:59.960Z,5.43
2023-02-27T05:54:38.083Z,5.35
2023-02-27T05:55:15.034Z,5.68
2023-02-27T05:55:52.792Z,5.47
2023-02-27T05:56:27.437Z,5.90
2023-02-27T05:57:03.641Z,6.18
2023-02-27T05:57:41.427Z,7.30
2023-02-27T05:58:20.087Z,6.50
2023-02-27T05:58:57.064Z,5.50
2023-02-27T05:59:35.363Z,6.07
2023-02-27T06:00:12.162Z,5.72
2023-02-27T06:00:50.382Z,6.10
2023-02-27T06:01:25.266Z,6.20
2023-02-27T06:01:59.230Z,5.65
2023-02-27T06:02:37.570Z,6.35
2023-02-27T06:03:11.557Z,6.00
2023-02-27T06:03:48.699Z,5.60
2023-02-27T06:04:23.523Z,5.68
2023-02-27T06:04:58.747Z,5.80
2023-02-27T06:05:34.703Z,5.47
2023-02-27T06:06:15.297Z,6.05
2023-02-27T06:06:53.446Z,5.57
2023-02-27T06:07:28.061Z,6.20
2023-02-27T06:08:02.862Z,5.78
2023-02-27T06:08:38.349Z,6.70
2023-02-27T06:09:13.886Z,5.38
2023-02-27T06:09:50.462Z,6.45
2023-02-27T06:10:29.443Z,6.38
2023-02-27T06:11:03.306Z,5.72
2023-02-27T06:11:37.656Z,5.88
2023-02-27T06:12:13.582Z,5.78
2023-02-27T06:12:47.481Z,5.97
2023-02-27T06:13:25.611Z,5.82
2023-02-27T06:14:01.372Z,6.15
2023-02-27T06:14:35.763Z,5.85
2023-02-27T06:15:12.468Z,5.20
2023-02-27T06:15:47.588Z,5.35
2023-02-27T06:16:22.285Z,5.75
2023-02-27T06:16:57.232Z,5.65
2023-02-27T06:17:31.452Z,5.88
2023-02-27T06:18:06.341Z,5.40
2023-02-27T06:18:40.143Z,5.60
2023-02-27T06:19:14.682Z,6.43
2023-02-27T06:19:49.991Z,5.97
2023-02-27T06:20:23.033Z,6.38
2023-02-27T06:20:58.920Z,5.95
2023-02-27T06:21:33.208Z,5.75
2023-02-27T06:22:07.615Z,5.78
2023-02-27T06:22:43.438Z,5.57
2023-02-27T06:23:18.070Z,6.30
2023-02-27T06:23:54.113Z,5.30
2023-02-27T06:24:28.467Z,5.95
2023-02-27T06:25:02.944Z,5.47
2023-02-27T06:25:42.335Z,5.75
2023-02-27T06:26:17.201Z,5.53
2023-02-27T06:26:51.338Z,5.50
2023-02-27T06:27:27.904Z,5.13
2023-02-27T06:28:02.253Z,5.22
2023-02-27T06:28:37.424Z,7.72
2023-02-27T06:29:13.785Z,5.55
2023-02-27T06:29:48.501Z,5.00
2023-02-27T06:30:23.697Z,5.63
2023-02-27T06:30:59.042Z,5.50
2023-02-27T06:31:34.017Z,5.60
2023-02-27T06:32:30.930Z,5.80
2023-02-27T06:33:04.632Z,5.28
2023-02-27T06:33:40.593Z,5.40
2023-02-27T06:34:15.500Z,5.03
2023-02-27T06:34:48.760Z,5.65
2023-02-27T06:35:23.121Z,5.10
2023-02-27T06:36:00.373Z,5.57
2023-02-27T06:36:34.343Z,5.82
2023-02-27T06:37:10.083Z,5.60
2023-02-27T06:37:45.091Z,5.90
2023-02-27T06:38:18.458Z,6.05
2023-02-27T06:38:53.930Z,5.57
2023-02-27T06:39:26.963Z,6.00
2023-02-27T06:40:00.780Z,5.60
2023-02-27T06:40:35.543Z,5.70
2023-02-27T06:41:10.283Z,5.63
2023-02-27T06:41:47.479Z,6.05
2023-02-27T06:42:21.278Z,5.50
2023-02-27T06:42:55.643Z,5.35
2023-02-27T06:43:30.907Z,5.65
2023-02-27T06:44:07.483Z,5.57
2023-02-27T06:44:43.817Z,5.85
2023-02-27T06:45:20.250Z,5.68
2023-02-27T06:45:54.726Z,5.82
2023-02-27T06:46:29.785Z,4.90
2023-02-27T06:47:05.509Z,5.53
2023-02-27T06:47:39.416Z,5.22
2023-02-27T06:48:15.543Z,5.65
2023-02-27T06:48:50.205Z,4.97
2023-02-27T06:49:25.000Z,5.30
2023-02-27T06:50:01.352Z,5.43
2023-02-27T06:50:35.570Z,5.25
2023-02-27T06:51:11.984Z,4.85
2023-02-27T06:51:45.579Z,5.28
2023-02-27T06:52:20.576Z,4.70
2023-02-27T06:52:56.205Z,5.55
2023-02-27T06:53:30.082Z,5.10
2023-02-27T06:54:06.106Z,5.72
2023-02-27T06:54:41.097Z,5.20
2023-02-27T06:55:21.028Z,5.40
2023-02-27T06:55:54.650Z,5.75
2023-02-27T06:56:29.815Z,5.32
2023-02-27T06:57:05.327Z,5.18
2023-02-27T06:57:39.529Z,5.22
2023-02-27T06:58:13.712Z,5.20
2023-02-27T06:58:49.040Z,5.95
2023-02-27T06:59:23.415Z,5.53
2023-02-27T06:59:59.182Z,6.35
2023-02-27T07:00:33.964Z,5.82
2023-02-27T07:01:08.342Z,5.75
2023-02-27T07:01:43.673Z,5.18
2023-02-27T07:02:17.254Z,5.20
2023-02-27T07:02:58.897Z,5.47
2023-02-27T07:03:32.685Z,5.45
2023-02-27T07:04:16.233Z,5.35
2023-02-27T07:04:50.393Z,5.05
2023-02-27T07:05:25.086Z,5.10
2023-02-27T07:05:59.374Z,5.80
2023-02-27T07:07:34.166Z,6.25
2023-02-27T07:07:34.572Z,6.15
2023-02-27T07:08:10.458Z,5.78
2023-02-27T07:09:01.995Z,5.07
2023-02-27T07:09:39.538Z,5.10
2023-02-27T07:10:16.297Z,5.28
2023-02-27T07:10:51.235Z,4.97
2023-02-27T07:11:25.341Z,5.18
2023-02-27T07:12:00.128Z,5.05
2023-02-27T07:12:35.638Z,5.10
2023-02-27T07:13:16.795Z,5.00
2023-02-27T07:13:51.890Z,4.90
2023-02-27T07:14:27.192Z,5.03
2023-02-27T07:15:02.767Z,4.70
2023-02-27T07:15:38.284Z,4.80
2023-02-27T07:16:13.014Z,4.88
2023-02-27T07:16:51.672Z,5.70
2023-02-27T07:17:25.882Z,4.95
2023-02-27T07:18:00.950Z,5.35
2023-02-27T07:18:35.071Z,5.38
2023-02-27T07:19:09.263Z,5.35
2023-02-27T07:19:45.690Z,5.68
2023-02-27T07:20:19.406Z,5.25
2023-02-27T07:20:57.171Z,5.25
2023-02-27T07:21:30.625Z,5.05
2023-02-27T07:22:06.268Z,4.97
2023-02-27T07:22:41.983Z,5.15
2023-02-27T07:23:16.649Z,5.80
2023-02-27T07:23:50.931Z,5.47
2023-02-27T07:24:26.517Z,5.22
2023-02-27T07:25:00.874Z,5.38
2023-02-27T07:25:36.690Z,5.10
2023-02-27T07:26:10.265Z,4.70
2023-02-27T07:26:44.568Z,4.47
2023-02-27T07:27:20.491Z,4.90
2023-02-27T07:27:54.780Z,4.90
2023-02-27T07:28:29.695Z,5.43
2023-02-27T07:29:05.707Z,5.00
2023-02-27T07:29:40.473Z,5.18
2023-02-27T07:30:16.977Z,5.20
2023-02-27T07:30:52.009Z,5.68
2023-02-27T07:31:28.933Z,5.40
2023-02-27T07:32:04.932Z,4.53
2023-02-27T07:32:39.283Z,4.57
2023-02-27T07:33:14.899Z,5.47
2023-02-27T07:33:49.054Z,5.10
2023-02-27T07:34:25.014Z,5.70
2023-02-27T07:34:59.172Z,5.30
2023-02-27T07:35:34.293Z,5.43
2023-02-27T07:36:09.017Z,4.75
2023-02-27T07:36:45.754Z,4.38
2023-02-27T07:37:21.043Z,5.10
2023-02-27T07:37:55.378Z,5.05
2023-02-27T07:38:32.906Z,4.97
2023-02-27T07:39:09.470Z,5.32
2023-02-27T07:39:45.327Z,5.30
2023-02-27T07:40:19.882Z,5.03
2023-02-27T07:40:55.600Z,5.38
2023-02-27T07:41:31.015Z,5.22
2023-02-27T07:42:10.489Z,4.55
2023-02-27T07:42:48.953Z,4.65
2023-02-27T07:43:23.954Z,4.25
2023-02-27T07:43:57.946Z,4.78
2023-02-27T07:44:33.544Z,4.70
2023-02-27T07:45:08.407Z,4.97
2023-02-27T07:45:45.778Z,5.13
2023-02-27T07:46:19.496Z,4.45
2023-02-27T07:46:52.930Z,4.50
2023-02-27T07:47:31.067Z,4.38
2023-02-27T07:48:05.594Z,5.18
2023-02-27T07:48:41.301Z,4.22
2023-02-27T07:49:15.498Z,4.60
2023-02-27T07:49:49.916Z,4.50
2023-02-27T07:50:24.332Z,5.18
2023-02-27T07:50:58.524Z,4.75
2023-02-27T07:51:33.500Z,4.78
2023-02-27T07:52:09.014Z,4.72
2023-02-27T07:52:43.176Z,4.65
2023-02-27T07:53:18.014Z,4.40
2023-02-27T07:53:52.759Z,5.20
2023-02-27T07:54:28.287Z,4.65
2023-02-27T07:55:03.878Z,4.93
2023-02-27T07:55:38.084Z,4.88
2023-02-27T07:56:12.932Z,5.00
2023-02-27T07:56:46.708Z,5.18
2023-02-27T07:57:22.028Z,4.85
2023-02-27T07:57:55.667Z,5.13
2023-02-27T07:58:31.476Z,5.15
2023-02-27T07:59:05.582Z,4.78
2023-02-27T07:59:39.781Z,4.45
2023-02-27T08:00:14.507Z,5.25
2023-02-27T08:00:49.550Z,4.80
2023-02-27T08:01:24.520Z,5.10
2023-02-27T08:01:58.100Z,5.18
2023-02-27T08:02:34.523Z,5.13
2023-02-27T08:03:09.934Z,5.38
2023-02-27T08:03:45.255Z,4.95
2023-02-27T08:04:20.733Z,5.35
2023-02-27T08:04:54.430Z,5.22
2023-02-27T08:05:29.800Z,5.38
2023-02-27T08:06:04.063Z,5.47
2023-02-27T08:06:38.260Z,4.60
2023-02-27T08:07:12.713Z,4.93
2023-02-27T08:07:48.085Z,4.70
2023-02-27T08:08:23.472Z,5.32
2023-02-27T08:08:58.598Z,4.85
2023-02-27T08:09:33.215Z,5.22
2023-02-27T08:10:09.717Z,5.25
2023-02-27T08:10:43.815Z,5.40
2023-02-27T08:11:19.194Z,4.88
2023-02-27T08:11:53.538Z,5.38
2023-02-27T08:12:27.401Z,5.00
2023-02-27T08:13:03.337Z,4.60
2023-02-27T08:14:33.295Z,4.63
2023-02-27T08:15:08.711Z,4.95
2023-02-27T08:15:42.817Z,5.00
2023-02-27T08:16:19.749Z,5.40
2023-02-27T08:16:53.871Z,4.53
2023-02-27T08:17:28.711Z,5.10
2023-02-27T08:18:02.931Z,6.97
2023-02-27T08:18:37.033Z,6.25
2023-02-27T08:19:12.654Z,5.50